createdAt,value
2022-09-03T00:00:01.330Z,0.00
2022-09-03T00:01:08.139Z,0.00
2022-09-03T00:02:16.726Z,0.00
2022-09-03T00:03:01.129Z,0.00
2022-09-03T00:04:01.252Z,0.00
2022-09-03T00:05:01.274Z,0.00
2022-09-03T00:06:01.249Z,0.00
2022-09-03T00:07:00.999Z,0.00
2022-09-03T00:08:01.036Z,0.00
2022-09-03T00:09:00.978Z,0.00
2022-09-03T00:10:00.985Z,0.00
2022-09-03T00:11:00.970Z,0.00
2022-09-03T00:12:01.979Z,0.00
2022-09-03T00:13:01.170Z,0.00
2022-09-03T00:14:01.201Z,0.00
2022-09-03T00:15:01.173Z,0.00
2022-09-03T00:16:00.978Z,0.00
2022-09-03T00:17:00.921Z,0.00
2022-09-03T00:18:00.920Z,0.00
2022-09-03T00:19:01.118Z,0.00
2022-09-03T00:20:04.132Z,0.00
2022-09-03T00:21:16.189Z,0.00
2022-09-03T00:22:03.908Z,0.00
2022-09-03T00:23:01.090Z,0.00
2022-09-03T00:24:01.058Z,0.00
2022-09-03T00:25:00.847Z,0.00
2022-09-03T00:26:00.815Z,0.00
2022-09-03T00:27:01.027Z,0.00
2022-09-03T00:28:00.812Z,0.00
2022-09-03T00:29:00.782Z,0.00
2022-09-03T00:30:00.800Z,0.00
2022-09-03T00:31:08.341Z,0.00
2022-09-03T00:32:00.987Z,0.00
2022-09-03T00:33:08.084Z,0.00
2022-09-03T00:34:16.233Z,0.00
2022-09-03T00:35:00.721Z,0.00
2022-09-03T00:36:00.740Z,0.00
2022-09-03T00:37:01.954Z,0.00
2022-09-03T00:38:00.684Z,0.00
2022-09-03T00:39:01.715Z,0.00
2022-09-03T00:40:00.728Z,0.00
2022-09-03T00:41:00.696Z,0.00
2022-09-03T00:42:01.676Z,0.00
2022-09-03T00:43:00.674Z,0.00
2022-09-03T00:44:21.658Z,0.00
2022-09-03T00:45:00.612Z,0.00
2022-09-03T00:46:00.664Z,0.00
2022-09-03T00:47:00.818Z,0.00
2022-09-03T00:48:00.843Z,0.00
2022-09-03T00:49:00.808Z,0.00
2022-09-03T00:50:01.842Z,0.00
2022-09-03T00:51:00.803Z,0.00
2022-09-03T00:52:00.768Z,0.00
2022-09-03T00:53:00.544Z,0.00
2022-09-03T00:54:00.545Z,0.00
2022-09-03T00:55:00.531Z,0.00
2022-09-03T00:56:00.745Z,0.00
2022-09-03T00:57:00.758Z,0.00
2022-09-03T00:58:00.476Z,0.00
2022-09-03T00:59:00.468Z,0.00
2022-09-03T01:00:00.487Z,0.00
2022-09-03T01:01:00.708Z,0.00
2022-09-03T01:02:00.774Z,0.00
2022-09-03T01:03:15.684Z,0.00
2022-09-03T01:04:01.688Z,0.00
2022-09-03T01:05:01.665Z,0.00
2022-09-03T01:06:01.858Z,0.00
2022-09-03T01:07:00.406Z,0.00
2022-09-03T01:08:00.404Z,0.00
2022-09-03T01:09:01.615Z,0.00
2022-09-03T01:10:00.607Z,0.00
2022-09-03T01:11:00.335Z,0.00
2022-09-03T01:12:00.360Z,0.00
2022-09-03T01:13:00.400Z,0.00
2022-09-03T01:14:07.710Z,0.00
2022-09-03T01:15:00.548Z,0.00
2022-09-03T01:16:03.387Z,0.00
2022-09-03T01:17:00.536Z,0.00
2022-09-03T01:18:00.517Z,0.00
2022-09-03T01:19:00.270Z,0.00
2022-09-03T01:20:00.476Z,0.00
2022-09-03T01:21:01.264Z,0.00
2022-09-03T01:22:00.480Z,0.00
2022-09-03T01:23:00.256Z,0.00
2022-09-03T01:24:03.471Z,0.00
2022-09-03T01:25:01.434Z,0.00
2022-09-03T01:26:03.480Z,0.00
2022-09-03T01:27:03.216Z,0.00
2022-09-03T01:28:00.432Z,0.00
2022-09-03T01:29:00.186Z,0.00
2022-09-03T01:30:00.206Z,0.00
2022-09-03T01:31:00.208Z,0.00
2022-09-03T01:32:00.183Z,0.00
2022-09-03T01:33:03.162Z,0.00
2022-09-03T01:34:00.352Z,0.00
2022-09-03T01:35:00.124Z,0.00
2022-09-03T01:36:00.347Z,0.00
2022-09-03T01:37:03.118Z,0.00
2022-09-03T01:38:01.311Z,0.00
2022-09-03T01:39:00.078Z,0.00
2022-09-03T01:40:03.197Z,0.00
2022-09-03T01:41:15.363Z,0.00
2022-09-03T01:42:00.047Z,0.00
2022-09-03T01:43:00.028Z,0.00
2022-09-03T01:44:00.046Z,0.00
2022-09-03T01:45:03.037Z,0.00
2022-09-03T01:46:00.464Z,0.00
2022-09-03T01:47:03.022Z,0.00
2022-09-03T01:47:59.993Z,0.00
2022-09-03T01:49:15.331Z,0.00
2022-09-03T01:50:00.020Z,0.00
2022-09-03T01:51:07.212Z,0.00
2022-09-03T01:52:01.229Z,0.00
2022-09-03T01:53:01.184Z,0.00
2022-09-03T01:53:59.922Z,0.00
2022-09-03T01:55:00.130Z,0.00
2022-09-03T01:55:59.926Z,0.00
2022-09-03T01:56:59.887Z,0.00
2022-09-03T01:57:59.888Z,0.00
2022-09-03T01:58:59.891Z,0.00
2022-09-03T02:00:02.897Z,0.00
2022-09-03T02:01:02.904Z,0.00
2022-09-03T02:02:00.904Z,0.00
2022-09-03T02:03:20.810Z,0.00
2022-09-03T02:04:00.107Z,0.00
2022-09-03T02:05:00.053Z,0.00
2022-09-03T02:06:00.045Z,0.00
2022-09-03T02:06:59.778Z,0.00
2022-09-03T02:07:59.777Z,0.00
2022-09-03T02:08:59.787Z,0.00
2022-09-03T02:09:59.737Z,0.00
2022-09-03T02:11:00.765Z,0.00
2022-09-03T02:12:02.749Z,0.00
2022-09-03T02:13:02.983Z,0.00
2022-09-03T02:13:59.945Z,0.00
2022-09-03T02:14:59.972Z,0.00
2022-09-03T02:15:59.714Z,0.00
2022-09-03T02:16:59.705Z,0.00
2022-09-03T02:17:59.884Z,0.00
2022-09-03T02:18:59.906Z,0.00
2022-09-03T02:20:00.677Z,0.00
2022-09-03T02:20:59.650Z,0.00
2022-09-03T02:21:59.614Z,0.00
2022-09-03T02:22:59.867Z,0.00
2022-09-03T02:23:59.849Z,0.00
2022-09-03T02:24:59.802Z,0.00
2022-09-03T02:26:15.053Z,0.00
2022-09-03T02:27:00.837Z,0.00
2022-09-03T02:28:17.652Z,0.00
2022-09-03T02:29:00.559Z,0.00
2022-09-03T02:30:00.557Z,0.00
2022-09-03T02:30:59.619Z,0.00
2022-09-03T02:31:59.750Z,0.00
2022-09-03T02:32:59.782Z,0.00
2022-09-03T02:34:02.751Z,0.00
2022-09-03T02:34:59.481Z,0.00
2022-09-03T02:36:06.924Z,0.00
2022-09-03T02:36:59.509Z,0.00
2022-09-03T02:37:59.473Z,0.00
2022-09-03T02:39:06.720Z,0.00
2022-09-03T02:39:59.538Z,0.00
2022-09-03T02:40:59.690Z,0.00
2022-09-03T02:42:00.674Z,0.00
2022-09-03T02:43:00.686Z,0.00
2022-09-03T02:44:15.120Z,0.00
2022-09-03T02:44:59.401Z,0.00
2022-09-03T02:46:02.746Z,0.00
2022-09-03T02:47:00.653Z,0.00
2022-09-03T02:47:59.594Z,0.00
2022-09-03T02:49:00.357Z,0.00
2022-09-03T02:50:02.379Z,0.00
2022-09-03T02:51:00.340Z,0.00
2022-09-03T02:52:02.354Z,0.00
2022-09-03T02:52:59.553Z,0.00
2022-09-03T02:54:18.905Z,0.00
2022-09-03T02:55:00.561Z,0.00
2022-09-03T02:56:02.533Z,0.00
2022-09-03T02:56:59.267Z,0.00
2022-09-03T02:57:59.491Z,0.00
2022-09-03T02:58:59.506Z,0.00
2022-09-03T02:59:59.263Z,0.00
2022-09-03T03:01:02.333Z,0.00
2022-09-03T03:02:02.292Z,0.00
2022-09-03T03:02:59.206Z,0.00
2022-09-03T03:03:59.433Z,0.00
2022-09-03T03:05:02.215Z,0.00
2022-09-03T03:06:00.442Z,0.00
2022-09-03T03:07:06.256Z,0.00
2022-09-03T03:08:00.166Z,0.00
2022-09-03T03:08:59.165Z,0.00
2022-09-03T03:09:59.357Z,0.00
2022-09-03T03:10:59.371Z,0.00
2022-09-03T03:11:59.107Z,0.00
2022-09-03T03:12:59.109Z,0.00
2022-09-03T03:13:59.364Z,0.00
2022-09-03T03:15:00.124Z,0.00
2022-09-03T03:16:14.382Z,0.00
2022-09-03T03:16:59.377Z,0.00
2022-09-03T03:17:59.055Z,0.00
2022-09-03T03:18:59.042Z,0.00
2022-09-03T03:20:06.285Z,0.00
2022-09-03T03:21:00.258Z,0.00
2022-09-03T03:22:20.017Z,0.00
2022-09-03T03:22:59.009Z,0.00
2022-09-03T03:23:59.017Z,0.00
2022-09-03T03:25:02.019Z,0.00
2022-09-03T03:26:06.260Z,0.00
2022-09-03T03:26:59.010Z,0.00
2022-09-03T03:27:58.967Z,0.00
2022-09-03T03:28:59.194Z,0.00
2022-09-03T03:29:58.920Z,0.00
2022-09-03T03:30:58.990Z,0.00
2022-09-03T03:31:59.176Z,0.00
2022-09-03T03:33:01.922Z,0.00
2022-09-03T03:34:06.028Z,0.00
2022-09-03T03:34:59.106Z,0.00
2022-09-03T03:35:58.869Z,0.00
2022-09-03T03:36:58.863Z,0.00
2022-09-03T03:37:59.097Z,0.00
2022-09-03T03:38:59.071Z,0.00
2022-09-03T03:39:59.109Z,0.00
2022-09-03T03:41:00.072Z,0.00
2022-09-03T03:41:59.043Z,0.00
2022-09-03T03:42:58.849Z,0.00
2022-09-03T03:44:06.324Z,0.00
2022-09-03T03:44:59.011Z,0.00
2022-09-03T03:45:58.814Z,0.00
2022-09-03T03:46:58.743Z,0.00
2022-09-03T03:47:58.753Z,0.00
2022-09-03T03:48:58.760Z,0.00
2022-09-03T03:50:01.763Z,0.00
2022-09-03T03:50:59.958Z,0.00
2022-09-03T03:51:58.699Z,0.00
2022-09-03T03:52:59.735Z,0.00
2022-09-03T03:54:05.991Z,0.00
2022-09-03T03:54:58.940Z,0.00
2022-09-03T03:55:58.885Z,0.00
2022-09-03T03:56:58.871Z,0.00
2022-09-03T03:57:58.645Z,0.00
2022-09-03T03:58:58.852Z,0.00
2022-09-03T03:59:58.634Z,0.00
2022-09-03T04:00:58.942Z,0.00
2022-09-03T04:01:58.640Z,0.00
2022-09-03T04:02:59.597Z,0.00
2022-09-03T04:03:59.814Z,0.00
2022-09-03T04:04:58.587Z,0.00
2022-09-03T04:06:19.809Z,0.00
2022-09-03T04:06:58.788Z,0.00
2022-09-03T04:07:58.536Z,0.00
2022-09-03T04:08:58.536Z,0.00
2022-09-03T04:09:58.767Z,0.00
2022-09-03T04:10:59.522Z,0.00
2022-09-03T04:11:58.506Z,0.00
2022-09-03T04:12:58.514Z,0.00
2022-09-03T04:13:58.460Z,0.00
2022-09-03T04:14:58.461Z,0.00
2022-09-03T04:15:58.676Z,0.00
2022-09-03T04:16:58.760Z,0.00
2022-09-03T04:18:01.709Z,0.00
2022-09-03T04:18:58.452Z,0.00
2022-09-03T04:20:19.641Z,0.00
2022-09-03T04:20:59.430Z,0.00
2022-09-03T04:21:59.635Z,0.00
2022-09-03T04:22:58.621Z,0.00
2022-09-03T04:23:58.637Z,0.00
2022-09-03T04:24:58.382Z,0.00
2022-09-03T04:25:58.362Z,0.00
2022-09-03T04:26:58.580Z,0.00
2022-09-03T04:27:58.569Z,0.00
2022-09-03T04:28:58.325Z,0.00
2022-09-03T04:30:05.447Z,0.00
2022-09-03T04:30:58.585Z,0.00
2022-09-03T04:31:58.301Z,0.00
2022-09-03T04:32:58.295Z,0.00
2022-09-03T04:33:59.271Z,0.00
2022-09-03T04:35:01.303Z,0.00
2022-09-03T04:35:58.242Z,0.00
2022-09-03T04:36:58.253Z,0.00
2022-09-03T04:37:59.242Z,0.00
2022-09-03T04:38:58.219Z,0.00
2022-09-03T04:39:58.515Z,0.00
2022-09-03T04:40:59.442Z,0.00
2022-09-03T04:42:00.000Z,0.00
2022-09-03T04:43:05.236Z,0.00
2022-09-03T04:43:58.406Z,0.00
2022-09-03T04:44:59.408Z,0.00
2022-09-03T04:45:58.465Z,0.00
2022-09-03T04:46:58.386Z,0.00
2022-09-03T04:47:58.385Z,0.00
2022-09-03T04:48:58.332Z,0.00
2022-09-03T04:49:58.103Z,0.00
2022-09-03T04:50:58.344Z,0.00
2022-09-03T04:51:58.109Z,0.00
2022-09-03T04:52:59.092Z,0.00
2022-09-03T04:53:58.075Z,0.00
2022-09-03T04:54:58.326Z,0.00
2022-09-03T04:55:58.055Z,0.00
2022-09-03T04:56:58.278Z,0.00
2022-09-03T04:57:58.014Z,0.00
2022-09-03T04:58:59.273Z,5.62
2022-09-03T04:59:58.075Z,5.62
2022-09-03T05:00:58.291Z,5.62
2022-09-03T05:01:58.027Z,5.62
2022-09-03T05:02:59.008Z,5.62
2022-09-03T05:03:58.016Z,5.62
2022-09-03T05:04:58.197Z,5.62
2022-09-03T05:05:57.956Z,5.62
2022-09-03T05:06:57.930Z,5.62
2022-09-03T05:07:57.907Z,5.62
2022-09-03T05:09:05.246Z,5.62
2022-09-03T05:09:57.930Z,5.62
2022-09-03T05:10:57.889Z,5.62
2022-09-03T05:11:57.898Z,5.62
2022-09-03T05:13:05.364Z,5.62
2022-09-03T05:13:57.852Z,5.62
2022-09-03T05:14:57.858Z,5.62
2022-09-03T05:15:57.863Z,5.62
2022-09-03T05:17:05.062Z,5.62
2022-09-03T05:17:58.830Z,5.62
2022-09-03T05:18:58.060Z,11.25
2022-09-03T05:19:57.792Z,11.25
2022-09-03T05:20:58.016Z,11.25
2022-09-03T05:22:19.791Z,11.25
2022-09-03T05:22:57.980Z,5.62
2022-09-03T05:23:57.784Z,5.62
2022-09-03T05:24:57.983Z,5.62
2022-09-03T05:25:58.772Z,5.62
2022-09-03T05:26:59.029Z,5.62
2022-09-03T05:27:57.940Z,5.62
2022-09-03T05:28:57.720Z,5.62
2022-09-03T05:29:57.695Z,5.62
2022-09-03T05:30:58.710Z,5.62
2022-09-03T05:31:57.715Z,5.62
2022-09-03T05:32:57.880Z,11.25
2022-09-03T05:33:57.705Z,11.25
2022-09-03T05:34:57.939Z,11.25
2022-09-03T05:35:57.622Z,11.25
2022-09-03T05:37:18.628Z,16.88
2022-09-03T05:37:57.616Z,16.88
2022-09-03T05:38:58.662Z,16.88
2022-09-03T05:39:57.608Z,22.50
2022-09-03T05:40:58.067Z,22.50
2022-09-03T05:41:57.563Z,22.50
2022-09-03T05:42:57.569Z,22.50
2022-09-03T05:44:05.028Z,22.50
2022-09-03T05:44:57.581Z,22.50
2022-09-03T05:45:57.541Z,28.12
2022-09-03T05:46:57.550Z,28.12
2022-09-03T05:47:57.501Z,28.12
2022-09-03T05:48:57.735Z,28.12
2022-09-03T05:49:57.492Z,22.50
2022-09-03T05:50:57.523Z,22.50
2022-09-03T05:51:57.459Z,33.75
2022-09-03T05:52:57.467Z,33.75
2022-09-03T05:53:57.442Z,39.38
2022-09-03T05:54:57.458Z,39.38
2022-09-03T05:55:57.670Z,45.00
2022-09-03T05:57:04.788Z,45.00
2022-09-03T05:57:57.650Z,39.38
2022-09-03T05:58:57.624Z,39.38
2022-09-03T05:59:57.387Z,39.38
2022-09-03T06:00:57.405Z,33.75
2022-09-03T06:02:00.102Z,28.12
2022-09-03T06:03:19.763Z,28.12
2022-09-03T06:03:58.605Z,28.12
2022-09-03T06:04:57.597Z,22.50
2022-09-03T06:05:57.323Z,22.50
2022-09-03T06:06:57.336Z,22.50
2022-09-03T06:07:57.534Z,22.50
2022-09-03T06:09:04.419Z,22.50
2022-09-03T06:10:00.580Z,28.12
2022-09-03T06:10:57.276Z,22.50
2022-09-03T06:11:57.543Z,22.50
2022-09-03T06:12:57.495Z,22.50
2022-09-03T06:13:58.517Z,22.50
2022-09-03T06:14:57.279Z,28.12
2022-09-03T06:15:57.519Z,28.12
2022-09-03T06:16:57.512Z,22.50
2022-09-03T06:17:57.437Z,22.50
2022-09-03T06:18:57.210Z,16.88
2022-09-03T06:19:57.185Z,16.88
2022-09-03T06:20:57.420Z,16.88
2022-09-03T06:22:04.437Z,22.50
2022-09-03T06:22:57.156Z,28.12
2022-09-03T06:23:59.699Z,33.75
2022-09-03T06:25:00.135Z,39.38
2022-09-03T06:25:57.119Z,39.38
2022-09-03T06:26:58.379Z,45.00
2022-09-03T06:27:57.122Z,45.00
2022-09-03T06:28:57.490Z,45.00
2022-09-03T06:29:57.332Z,39.38
2022-09-03T06:30:57.107Z,39.38
2022-09-03T06:31:58.123Z,33.75
2022-09-03T06:32:58.059Z,33.75
2022-09-03T06:34:00.782Z,28.12
2022-09-03T06:34:58.272Z,28.12
2022-09-03T06:35:57.009Z,28.12
2022-09-03T06:36:57.249Z,28.12
2022-09-03T06:38:00.319Z,28.12
2022-09-03T06:38:57.219Z,28.12
2022-09-03T06:39:57.289Z,28.12
2022-09-03T06:40:57.221Z,22.50
2022-09-03T06:41:58.236Z,16.88
2022-09-03T06:42:56.934Z,16.88
2022-09-03T06:43:56.966Z,16.88
2022-09-03T06:44:56.925Z,16.88
2022-09-03T06:45:56.971Z,16.88
2022-09-03T06:46:59.945Z,16.88
2022-09-03T06:47:59.941Z,16.88
2022-09-03T06:48:59.918Z,16.88
2022-09-03T06:49:57.147Z,16.88
2022-09-03T06:50:56.899Z,11.25
2022-09-03T06:51:57.909Z,11.25
2022-09-03T06:52:57.872Z,11.25
2022-09-03T06:53:57.857Z,11.25
2022-09-03T06:54:56.810Z,16.88
2022-09-03T06:55:56.849Z,16.88
2022-09-03T06:56:57.029Z,22.50
2022-09-03T06:57:56.834Z,22.50
2022-09-03T06:58:56.795Z,28.12
2022-09-03T06:59:59.796Z,39.38
2022-09-03T07:00:56.931Z,39.38
2022-09-03T07:01:57.161Z,39.38
2022-09-03T07:02:57.795Z,39.38
2022-09-03T07:04:00.007Z,33.75
2022-09-03T07:05:04.096Z,33.75
2022-09-03T07:05:56.704Z,33.75
2022-09-03T07:06:56.956Z,28.12
2022-09-03T07:07:57.944Z,33.75
2022-09-03T07:08:56.677Z,33.75
2022-09-03T07:09:56.664Z,39.38
2022-09-03T07:10:56.678Z,39.38
2022-09-03T07:11:56.682Z,39.38
2022-09-03T07:12:56.646Z,39.38
2022-09-03T07:13:57.886Z,33.75
2022-09-03T07:14:56.849Z,33.75
2022-09-03T07:15:56.655Z,33.75
2022-09-03T07:16:56.624Z,33.75
2022-09-03T07:17:56.597Z,39.38
2022-09-03T07:18:56.584Z,39.38
2022-09-03T07:19:56.810Z,39.38
2022-09-03T07:20:57.557Z,45.00
2022-09-03T07:21:56.557Z,45.00
2022-09-03T07:22:56.607Z,45.00
2022-09-03T07:23:56.773Z,50.62
2022-09-03T07:24:56.537Z,56.25
2022-09-03T07:25:59.521Z,67.50
2022-09-03T07:26:56.497Z,78.75
2022-09-03T07:27:56.488Z,90.00
2022-09-03T07:28:57.462Z,101.25
2022-09-03T07:29:56.701Z,112.50
2022-09-03T07:30:56.452Z,129.38
2022-09-03T07:31:57.749Z,140.62
2022-09-03T07:32:56.437Z,123.75
2022-09-03T07:33:56.679Z,95.62
2022-09-03T07:34:56.440Z,90.00
2022-09-03T07:35:57.701Z,90.00
2022-09-03T07:36:56.397Z,101.25
2022-09-03T07:37:57.630Z,118.12
2022-09-03T07:38:57.662Z,123.75
2022-09-03T07:39:56.473Z,129.38
2022-09-03T07:40:56.610Z,146.25
2022-09-03T07:42:11.798Z,157.50
2022-09-03T07:42:56.582Z,163.12
2022-09-03T07:43:57.447Z,168.75
2022-09-03T07:44:56.313Z,168.75
2022-09-03T07:45:56.560Z,174.38
2022-09-03T07:47:03.379Z,174.38
2022-09-03T07:47:57.637Z,163.12
2022-09-03T07:48:56.270Z,146.25
2022-09-03T07:49:56.436Z,140.62
2022-09-03T07:50:56.534Z,157.50
2022-09-03T07:51:56.497Z,163.12
2022-09-03T07:52:56.533Z,163.12
2022-09-03T07:53:56.459Z,163.12
2022-09-03T07:54:56.207Z,163.12
2022-09-03T07:55:57.453Z,174.38
2022-09-03T07:56:56.448Z,180.00
2022-09-03T07:57:56.214Z,191.25
2022-09-03T07:58:56.164Z,208.12
2022-09-03T07:59:57.184Z,208.12
2022-09-03T08:00:56.248Z,208.12
2022-09-03T08:01:56.135Z,213.75
2022-09-03T08:02:56.231Z,219.38
2022-09-03T08:04:11.501Z,219.38
2022-09-03T08:04:59.364Z,230.62
2022-09-03T08:05:56.172Z,230.62
2022-09-03T08:06:56.328Z,230.62
2022-09-03T08:07:56.140Z,236.25
2022-09-03T08:08:57.900Z,230.62
2022-09-03T08:09:56.055Z,225.00
2022-09-03T08:10:57.319Z,196.88
2022-09-03T08:11:56.304Z,180.00
2022-09-03T08:12:56.251Z,180.00
2022-09-03T08:13:56.007Z,180.00
2022-09-03T08:14:56.079Z,174.38
2022-09-03T08:15:57.049Z,157.50
2022-09-03T08:17:03.277Z,151.88
2022-09-03T08:18:03.464Z,151.88
2022-09-03T08:18:57.969Z,135.00
2022-09-03T08:19:55.953Z,118.12
2022-09-03T08:20:56.957Z,118.12
2022-09-03T08:21:56.939Z,140.62
2022-09-03T08:22:55.924Z,185.62
2022-09-03T08:23:56.101Z,213.75
2022-09-03T08:24:56.166Z,185.62
2022-09-03T08:25:56.134Z,168.75
2022-09-03T08:26:55.897Z,151.88
2022-09-03T08:27:55.867Z,140.62
2022-09-03T08:28:55.885Z,135.00
2022-09-03T08:29:56.087Z,129.38
2022-09-03T08:30:56.080Z,118.12
2022-09-03T08:31:59.801Z,112.50
2022-09-03T08:32:55.830Z,112.50
2022-09-03T08:34:23.914Z,123.75
2022-09-03T08:34:55.799Z,123.75
2022-09-03T08:35:56.040Z,140.62
2022-09-03T08:36:56.006Z,157.50
2022-09-03T08:38:03.040Z,151.88
2022-09-03T08:38:56.006Z,146.25
2022-09-03T08:39:55.801Z,135.00
2022-09-03T08:40:55.739Z,123.75
2022-09-03T08:41:56.742Z,118.12
2022-09-03T08:42:55.752Z,106.88
2022-09-03T08:43:56.734Z,106.88
2022-09-03T08:44:55.692Z,118.12
2022-09-03T08:45:58.983Z,123.75
2022-09-03T08:46:55.826Z,129.38
2022-09-03T08:47:56.662Z,129.38
2022-09-03T08:48:56.665Z,123.75
2022-09-03T08:49:58.674Z,123.75
2022-09-03T08:50:55.637Z,151.88
2022-09-03T08:51:58.673Z,151.88
2022-09-03T08:52:55.631Z,185.62
2022-09-03T08:53:55.846Z,191.25
2022-09-03T08:54:55.837Z,185.62
2022-09-03T08:55:55.824Z,180.00
2022-09-03T08:56:55.838Z,174.38
2022-09-03T08:57:55.821Z,174.38
2022-09-03T08:58:55.551Z,174.38
2022-09-03T08:59:55.793Z,180.00
2022-09-03T09:00:55.526Z,185.62
2022-09-03T09:01:55.670Z,185.62
2022-09-03T09:02:55.626Z,196.88
2022-09-03T09:03:55.549Z,208.12
2022-09-03T09:04:55.716Z,213.75
2022-09-03T09:05:55.480Z,202.50
2022-09-03T09:06:55.727Z,191.25
2022-09-03T09:07:55.475Z,185.62
2022-09-03T09:08:55.451Z,185.62
2022-09-03T09:09:55.465Z,185.62
2022-09-03T09:11:02.697Z,185.62
2022-09-03T09:11:55.450Z,191.25
2022-09-03T09:12:55.636Z,191.25
2022-09-03T09:13:55.403Z,196.88
2022-09-03T09:14:55.645Z,208.12
2022-09-03T09:15:55.682Z,219.38
2022-09-03T09:16:55.601Z,236.25
2022-09-03T09:17:55.361Z,258.75
2022-09-03T09:18:55.349Z,281.25
2022-09-03T09:19:55.563Z,286.88
2022-09-03T09:20:55.589Z,275.62
2022-09-03T09:21:55.314Z,247.50
2022-09-03T09:22:55.321Z,219.38
2022-09-03T09:23:55.310Z,213.75
2022-09-03T09:24:55.508Z,241.88
2022-09-03T09:25:56.294Z,275.62
2022-09-03T09:26:55.260Z,292.50
2022-09-03T09:27:58.509Z,286.88
2022-09-03T09:28:55.261Z,270.00
2022-09-03T09:29:55.475Z,241.88
2022-09-03T09:30:55.280Z,219.38
2022-09-03T09:31:55.213Z,202.50
2022-09-03T09:32:56.451Z,196.88
2022-09-03T09:33:55.200Z,185.62
2022-09-03T09:34:55.432Z,180.00
2022-09-03T09:35:55.239Z,174.38
2022-09-03T09:36:55.385Z,174.38
2022-09-03T09:37:55.396Z,174.38
2022-09-03T09:38:55.394Z,174.38
2022-09-03T09:39:55.485Z,185.62
2022-09-03T09:40:55.364Z,196.88
2022-09-03T09:41:55.113Z,230.62
2022-09-03T09:42:55.091Z,275.62
2022-09-03T09:44:02.223Z,315.00
2022-09-03T09:44:55.342Z,309.38
2022-09-03T09:45:55.180Z,320.62
2022-09-03T09:46:56.170Z,309.38
2022-09-03T09:48:10.776Z,270.00
2022-09-03T09:48:55.285Z,253.12
2022-09-03T09:49:55.040Z,247.50
2022-09-03T09:51:02.312Z,247.50
2022-09-03T09:51:55.241Z,253.12
2022-09-03T09:52:58.629Z,253.12
2022-09-03T09:53:54.985Z,241.88
2022-09-03T09:54:55.035Z,219.38
2022-09-03T09:55:54.977Z,213.75
2022-09-03T09:56:55.178Z,202.50
2022-09-03T09:57:54.943Z,185.62
2022-09-03T09:58:55.953Z,180.00
2022-09-03T09:59:55.192Z,174.38
2022-09-03T10:00:55.136Z,174.38
2022-09-03T10:01:58.012Z,180.00
2022-09-03T10:02:54.990Z,185.62
2022-09-03T10:04:02.090Z,191.25
2022-09-03T10:04:54.914Z,196.88
2022-09-03T10:05:55.136Z,196.88
2022-09-03T10:06:55.086Z,202.50
2022-09-03T10:07:55.104Z,202.50
2022-09-03T10:08:54.831Z,191.25
2022-09-03T10:09:57.861Z,174.38
2022-09-03T10:10:55.073Z,174.38
2022-09-03T10:11:55.041Z,163.12
2022-09-03T10:12:54.799Z,151.88
2022-09-03T10:14:02.122Z,140.62
2022-09-03T10:14:54.770Z,135.00
2022-09-03T10:15:55.072Z,129.38
2022-09-03T10:16:54.997Z,118.12
2022-09-03T10:17:54.742Z,118.12
2022-09-03T10:18:54.969Z,112.50
2022-09-03T10:19:54.731Z,112.50
2022-09-03T10:20:54.742Z,106.88
2022-09-03T10:21:55.736Z,112.50
2022-09-03T10:22:56.925Z,112.50
2022-09-03T10:23:54.681Z,112.50
2022-09-03T10:24:54.678Z,112.50
2022-09-03T10:25:57.706Z,112.50
2022-09-03T10:26:54.888Z,118.12
2022-09-03T10:27:54.661Z,129.38
2022-09-03T10:28:56.851Z,146.25
2022-09-03T10:29:55.673Z,157.50
2022-09-03T10:30:55.708Z,163.12
2022-09-03T10:31:54.890Z,168.75
2022-09-03T10:32:54.833Z,174.38
2022-09-03T10:33:57.878Z,185.62
2022-09-03T10:34:54.568Z,191.25
2022-09-03T10:36:16.572Z,196.88
2022-09-03T10:36:54.570Z,196.88
2022-09-03T10:37:54.544Z,196.88
2022-09-03T10:38:54.524Z,196.88
2022-09-03T10:39:55.839Z,196.88
2022-09-03T10:40:54.512Z,196.88
2022-09-03T10:41:54.758Z,196.88
2022-09-03T10:42:54.511Z,191.25
2022-09-03T10:43:55.712Z,191.25
2022-09-03T10:44:57.203Z,185.62
2022-09-03T10:45:54.723Z,185.62
2022-09-03T10:46:54.463Z,180.00
2022-09-03T10:47:55.692Z,174.38
2022-09-03T10:48:54.461Z,168.75
2022-09-03T10:49:54.639Z,163.12
2022-09-03T10:50:54.405Z,168.75
2022-09-03T10:51:54.420Z,168.75
2022-09-03T10:52:54.429Z,174.38
2022-09-03T10:53:54.619Z,174.38
2022-09-03T10:54:54.392Z,174.38
2022-09-03T10:55:54.355Z,174.38
2022-09-03T10:56:55.344Z,180.00
2022-09-03T10:57:54.589Z,180.00
2022-09-03T10:58:55.606Z,185.62
2022-09-03T10:59:54.315Z,196.88
2022-09-03T11:00:55.349Z,208.12
2022-09-03T11:01:55.612Z,213.75
2022-09-03T11:02:54.610Z,219.38
2022-09-03T11:03:55.527Z,219.38
2022-09-03T11:04:54.291Z,213.75
2022-09-03T11:05:55.307Z,213.75
2022-09-03T11:06:54.254Z,208.12
2022-09-03T11:07:54.228Z,208.12
2022-09-03T11:08:54.239Z,202.50
2022-09-03T11:09:54.441Z,202.50
2022-09-03T11:10:54.437Z,196.88
2022-09-03T11:11:54.420Z,196.88
2022-09-03T11:12:57.222Z,191.25
2022-09-03T11:13:54.428Z,191.25
2022-09-03T11:14:54.163Z,191.25
2022-09-03T11:15:54.216Z,196.88
2022-09-03T11:16:54.341Z,202.50
2022-09-03T11:17:54.136Z,208.12
2022-09-03T11:18:54.158Z,208.12
2022-09-03T11:19:55.137Z,208.12
2022-09-03T11:20:54.101Z,213.75
2022-09-03T11:21:54.099Z,213.75
2022-09-03T11:22:54.064Z,219.38
2022-09-03T11:23:55.072Z,225.00
2022-09-03T11:24:54.072Z,230.62
2022-09-03T11:25:55.304Z,236.25
2022-09-03T11:26:54.046Z,236.25
2022-09-03T11:27:56.725Z,241.88
2022-09-03T11:28:57.046Z,247.50
2022-09-03T11:29:54.265Z,253.12
2022-09-03T11:30:54.066Z,275.62
2022-09-03T11:31:54.000Z,281.25
2022-09-03T11:32:55.698Z,281.25
2022-09-03T11:33:53.965Z,275.62
2022-09-03T11:34:53.971Z,264.38
2022-09-03T11:35:53.976Z,247.50
2022-09-03T11:36:53.945Z,241.88
2022-09-03T11:37:55.214Z,230.62
2022-09-03T11:38:54.135Z,219.38
2022-09-03T11:39:53.980Z,202.50
2022-09-03T11:40:54.165Z,185.62
2022-09-03T11:41:53.895Z,168.75
2022-09-03T11:42:54.100Z,151.88
2022-09-03T11:43:53.867Z,135.00
2022-09-03T11:44:53.858Z,118.12
2022-09-03T11:45:54.903Z,112.50
2022-09-03T11:46:53.847Z,118.12
2022-09-03T11:47:57.349Z,123.75
2022-09-03T11:48:53.820Z,118.12
2022-09-03T11:49:57.069Z,95.62
2022-09-03T11:51:00.994Z,106.88
2022-09-03T11:51:57.041Z,106.88
2022-09-03T11:52:53.792Z,106.88
2022-09-03T11:53:53.768Z,106.88
2022-09-03T11:54:53.748Z,123.75
2022-09-03T11:55:54.812Z,118.12
2022-09-03T11:56:53.747Z,118.12
2022-09-03T11:57:53.748Z,146.25
2022-09-03T11:58:54.711Z,135.00
2022-09-03T11:59:53.763Z,146.25
2022-09-03T12:00:53.921Z,135.00
2022-09-03T12:01:56.960Z,129.38
2022-09-03T12:03:00.892Z,123.75
2022-09-03T12:03:53.712Z,118.12
2022-09-03T12:04:53.689Z,112.50
2022-09-03T12:05:53.653Z,95.62
2022-09-03T12:06:53.860Z,84.38
2022-09-03T12:07:53.626Z,84.38
2022-09-03T12:08:53.631Z,78.75
2022-09-03T12:09:53.846Z,78.75
2022-09-03T12:10:56.610Z,78.75
2022-09-03T12:11:54.846Z,78.75
2022-09-03T12:12:54.601Z,78.75
2022-09-03T12:13:53.562Z,78.75
2022-09-03T12:14:53.573Z,73.12
2022-09-03T12:16:09.043Z,73.12
2022-09-03T12:16:53.517Z,61.88
2022-09-03T12:17:53.764Z,73.12
2022-09-03T12:18:53.482Z,73.12
2022-09-03T12:19:54.734Z,78.75
2022-09-03T12:20:53.754Z,73.12
2022-09-03T12:21:53.477Z,73.12
2022-09-03T12:23:58.193Z,73.12
2022-09-03T12:24:53.505Z,73.12
2022-09-03T12:25:53.708Z,78.75
2022-09-03T12:26:53.436Z,84.38
2022-09-03T12:27:56.676Z,84.38
2022-09-03T12:28:53.387Z,84.38
2022-09-03T12:29:53.398Z,84.38
2022-09-03T12:30:53.544Z,78.75
2022-09-03T12:31:53.397Z,78.75
2022-09-03T12:32:56.607Z,73.12
2022-09-03T12:33:53.601Z,78.75
2022-09-03T12:34:53.429Z,67.50
2022-09-03T12:36:00.766Z,84.38
2022-09-03T12:36:53.347Z,95.62
2022-09-03T12:38:10.049Z,95.62
2022-09-03T12:39:11.480Z,101.25
2022-09-03T12:40:11.003Z,112.50
2022-09-03T12:41:54.513Z,118.12
2022-09-03T12:42:53.848Z,95.62
2022-09-03T12:43:53.688Z,95.62
2022-09-03T12:44:53.244Z,90.00
2022-09-03T12:47:33.494Z,90.00
2022-09-03T12:47:54.241Z,90.00
2022-09-03T12:49:54.440Z,90.00
2022-09-03T12:50:56.696Z,106.88
2022-09-03T12:51:56.968Z,112.50
2022-09-03T12:52:54.173Z,106.88
2022-09-03T12:54:00.502Z,106.88
2022-09-03T12:54:53.371Z,101.25
2022-09-03T12:55:56.209Z,112.50
2022-09-03T12:56:53.366Z,106.88
2022-09-03T12:57:57.029Z,101.25